Time;durP1;ratioP1;P1;durP2;ratioP2;P2;SDS_P1;SDS_P2;PMS_P1;PMS_P2;Temp;Humidity;BMP_temperature;BMP_pressure;BME280_temperature;BME280_humidity;BME280_pressure;Samples;Min_cycle;Max_cycle;Signal;HPM_P1;HPM_P2
2024/01/31 00:00:11;;;;;;;35.75;20.50;;;;;;;-4.95;74.19;99639.06;10366797;28;20534;-56
2024/01/31 00:05:12;;;;;;;35.65;22.40;;;;;;;-4.97;74.29;99627.91;10368172;28;20068;-57
2024/01/31 00:10:11;;;;;;;37.70;22.90;;;;;;;-5.37;74.66;99572.06;10367594;28;20513;-57
2024/01/31 00:15:10;;;;;;;;;;;;;;;-4.91;74.97;99671.47;10367849;28;20537;-56
2024/01/31 00:20:11;;;;;;;82.75;43.85;;;;;;;-6.21;74.36;99438.00;10367117;28;20365;-56
2024/01/31 00:25:10;;;;;;;80.90;43.20;;;;;;;-5.78;74.13;99527.81;10365362;28;20061;-57
2024/01/31 00:30:10;;;;;;;80.82;37.50;;;;;;;-5.14;74.22;99619.69;10365295;28;20060;-58
2024/01/31 00:35:09;;;;;;;82.90;43.70;;;;;;;-5.50;73.18;99554.84;10366799;28;20060;-57
2024/01/31 00:40:09;;;;;;;;;;;;;;;-4.95;73.99;99647.53;10366692;28;20060;-57
2024/01/31 00:45:09;;;;;;;66.88;34.45;;;;;;;-5.28;73.60;99594.78;10366183;28;19943;-57
2024/01/31 00:50:08;;;;;;;61.40;35.22;;;;;;;-5.01;73.14;99651.16;10366273;28;20478;-57
2024/01/31 00:55:08;;;;;;;64.35;36.22;;;;;;;-5.49;73.13;99574.38;10365955;28;20135;-58
2024/01/31 01:00:09;;;;;;;73.20;36.45;;;;;;;-5.20;72.57;99620.75;10365688;28;20071;-57
2024/01/31 01:05:09;;;;;;;74.68;40.72;;;;;;;-5.52;73.49;99566.50;10365528;28;20056;-57
2024/01/31 01:10:15;;;;;;;79.47;41.38;;;;;;;-5.77;73.15;99540.63;10364985;28;20064;-57
2024/01/31 01:15:18;;;;;;;79.35;40.47;;;;;;;-5.32;72.71;99612.94;10364857;28;20052;-57
2024/01/31 01:20:17;;;;;;;70.78;39.38;;;;;;;-5.17;73.31;99623.56;10364639;28;20475;-57
2024/01/31 01:25:16;;;;;;;70.55;39.88;;;;;;;-5.72;72.64;99515.75;10364336;28;20053;-57
2024/01/31 01:30:15;;;;;;;;;;;;;;;-5.22;73.92;99613.03;10364787;28;20106;-57
2024/01/31 01:35:14;;;;;;;83.38;41.33;;;;;;;-5.83;73.13;99513.88;10364336;28;19913;-57
2024/01/31 01:40:16;;;;;;;77.43;40.67;;;;;;;-5.28;73.12;99610.84;10364510;28;20049;-57
2024/01/31 01:45:15;;;;;;;70.13;39.72;;;;;;;-5.29;73.01;99620.81;10363839;28;20060;-57
2024/01/31 01:50:14;;;;;;;;;;;;;;;-5.30;73.77;99607.28;10364621;28;20056;-57
2024/01/31 01:55:13;;;;;;;95.53;45.40;;;;;;;-5.39;73.40;99606.44;10363944;28;19952;-57
2024/01/31 02:00:13;;;;;;;72.13;36.50;;;;;;;-6.45;73.94;99432.47;10363618;28;20065;-57
2024/01/31 02:05:12;;;;;;;74.03;36.75;;;;;;;-5.70;74.89;99574.94;10363782;28;20065;-57
2024/01/31 02:10:11;;;;;;;75.28;37.65;;;;;;;-5.62;74.08;99595.88;10364001;28;20056;-57
2024/01/31 02:15:10;;;;;;;;;;;;;;;-5.52;74.23;99599.38;10366651;28;20059;-57
2024/01/31 02:20:15;;;;;;;45.75;24.55;;;;;;;-5.72;74.89;99577.31;10371710;28;19942;-57
2024/01/31 02:25:14;;;;;;;70.18;35.92;;;;;;;-5.76;74.48;99572.72;10371743;28;20064;-57
2024/01/31 02:30:15;;;;;;;49.20;27.60;;;;;;;-6.95;73.95;99358.00;10371378;28;20072;-57
2024/01/31 02:35:14;;;;;;;65.50;35.95;;;;;;;-5.84;74.83;99553.44;10370880;28;20072;-57
2024/01/31 02:40:14;;;;;;;;;;;;;;;-5.70;74.90;99572.41;10370432;28;20134;-57
2024/01/31 02:45:13;;;;;;;;;;;;;;;-5.73;75.04;99567.06;10371682;28;20331;-57
2024/01/31 02:50:12;;;;;;;55.30;27.47;;;;;;;-5.92;74.41;99550.22;10369555;28;20677;-57
2024/01/31 02:55:11;;;;;;;;;;;;;;;-7.04;74.92;99392.47;10371480;28;20037;-57
2024/01/31 03:00:14;;;;;;;62.77;30.40;;;;;;;-6.32;75.74;99540.56;10370461;28;19913;-57
2024/01/31 03:05:13;;;;;;;66.25;32.47;;;;;;;-6.20;75.62;99569.47;10369665;28;20071;-57
2024/01/31 03:10:12;;;;;;;;;;;;;;;-6.10;75.44;99573.78;10370886;28;20064;-58
2024/01/31 03:15:11;;;;;;;61.67;31.70;;;;;;;-6.11;75.04;99579.56;10369190;28;19916;-57
2024/01/31 03:20:10;;;;;;;;;;;;;;;-6.08;75.04;99577.34;10370098;28;20060;-57
2024/01/31 03:25:09;;;;;;;57.28;30.27;;;;;;;-6.11;74.85;99575.41;10367676;28;19944;-57
2024/01/31 03:30:08;;;;;;;;;;;;;;;-6.12;75.17;99575.28;10368622;28;20052;-57
2024/01/31 03:35:08;;;;;;;73.43;35.67;;;;;;;-6.17;74.61;99561.34;10368717;28;19920;-57
2024/01/31 03:40:08;;;;;;;45.45;24.80;;;;;;;-6.21;74.73;99549.16;10369104;28;20071;-57
2024/01/31 03:45:08;;;;;;;52.05;27.42;;;;;;;-6.08;74.07;99577.34;10367960;28;20060;-57
2024/01/31 03:50:07;;;;;;;57.80;29.05;;;;;;;-6.14;74.19;99566.66;10367914;28;20458;-57
2024/01/31 03:55:06;;;;;;;68.45;31.55;;;;;;;-6.31;74.17;99543.25;10368149;28;20064;-57
2024/01/31 04:00:08;;;;;;;65.70;30.27;;;;;;;-6.20;74.27;99568.59;10367687;28;20681;-57
2024/01/31 04:05:10;;;;;;;72.72;37.83;;;;;;;-6.88;74.68;99462.91;10367524;28;20067;-57
2024/01/31 04:10:09;;;;;;;62.05;33.13;;;;;;;-6.42;74.75;99541.34;10366090;28;20271;-57
2024/01/31 04:15:08;;;;;;;;;;;;;;;-6.28;74.59;99572.06;10366021;28;20675;-57
2024/01/31 04:20:08;;;;;;;63.83;29.67;;;;;;;-6.29;74.47;99561.06;10365308;28;19921;-57
2024/01/31 04:25:07;;;;;;;66.65;29.63;;;;;;;-6.79;74.35;99479.81;10364465;28;20064;-57
2024/01/31 04:30:10;;;;;;;54.63;29.40;;;;;;;-7.16;74.83;99405.75;10366082;28;20077;-57
2024/01/31 04:35:09;;;;;;;61.13;31.70;;;;;;;-6.36;74.66;99529.28;10365438;28;20126;-56
2024/01/31 04:40:09;;;;;;;69.18;35.63;;;;;;;-6.28;74.89;99552.75;10365846;28;20069;-56
2024/01/31 04:45:08;;;;;;;77.28;43.17;;;;;;;-6.38;74.74;99540.88;10366189;28;20068;-57
2024/01/31 04:50:07;;;;;;;101.72;50.15;;;;;;;-6.47;74.97;99534.97;10365457;28;20159;-56
2024/01/31 04:55:07;;;;;;;114.72;56.63;;;;;;;-6.77;75.37;99508.59;10365180;28;20064;-56
2024/01/31 05:00:07;;;;;;;104.97;56.13;;;;;;;-7.09;76.06;99471.88;10364470;28;20365;-57
2024/01/31 05:05:06;;;;;;;113.35;55.72;;;;;;;-6.72;75.75;99520.03;10363494;28;20056;-56
2024/01/31 05:10:06;;;;;;;88.88;44.65;;;;;;;-6.86;75.02;99482.50;10362622;28;20071;-56
2024/01/31 05:15:05;;;;;;;71.72;36.55;;;;;;;-6.44;74.99;99555.47;10363495;28;20064;-58
2024/01/31 05:20:05;;;;;;;83.93;41.33;;;;;;;-6.75;74.44;99486.03;10362096;28;20048;-56
2024/01/31 05:25:06;;;;;;;83.43;40.28;;;;;;;-6.41;74.39;99550.72;10362078;28;20459;-56
2024/01/31 05:30:07;;;;;;;70.72;35.97;;;;;;;-6.72;74.07;99529.25;10362744;28;20076;-56
2024/01/31 05:35:07;;;;;;;73.22;39.20;;;;;;;-7.09;74.40;99469.38;10361458;28;20061;-56
2024/01/31 05:40:08;;;;;;;84.20;44.35;;;;;;;-6.58;74.36;99550.75;10319499;28;20076;-56
2024/01/31 05:45:07;;;;;;;102.88;51.30;;;;;;;-6.56;74.52;99554.31;10320221;28;20080;-56
2024/01/31 05:50:06;;;;;;;101.25;46.47;;;;;;;-6.53;74.36;99552.06;10321035;28;20483;-56
2024/01/31 05:55:06;;;;;;;73.78;37.63;;;;;;;-6.93;74.71;99493.63;10322638;28;20510;-56
2024/01/31 06:00:09;;;;;;;66.43;32.88;;;;;;;-6.45;74.72;99560.38;10323038;28;20064;-56
2024/01/31 06:05:08;;;;;;;71.97;36.47;;;;;;;-7.15;75.35;99459.59;10320626;28;20064;-56
2024/01/31 06:10:09;;;;;;;78.05;35.97;;;;;;;-6.65;74.91;99550.91;10321531;28;20064;-57
2024/01/31 06:15:08;;;;;;;89.85;38.13;;;;;;;-6.66;74.86;99547.50;10320484;28;20065;-56
2024/01/31 06:20:09;;;;;;;68.35;32.80;;;;;;;-6.54;75.07;99542.72;10320274;28;20490;-56
2024/01/31 06:25:08;;;;;;;77.18;34.28;;;;;;;-7.05;75.35;99449.63;10319776;28;20057;-56
2024/01/31 06:30:07;;;;;;;84.85;37.65;;;;;;;-6.25;74.75;99557.19;10320148;28;20080;-57
2024/01/31 06:35:06;;;;;;;127.25;65.93;;;;;;;-6.15;74.58;99554.75;10305046;28;20072;-56
2024/01/31 06:40:10;;;;;;;165.45;87.88;;;;;;;-6.06;74.63;99560.66;10286236;28;20057;-56
2024/01/31 06:45:09;;;;;;;182.23;102.97;;;;;;;-5.92;74.63;99557.81;10319235;28;20061;-56
2024/01/31 06:50:08;;;;;;;196.30;102.32;;;;;;;-5.91;74.38;99552.00;10317919;28;20067;-56
2024/01/31 06:55:07;;;;;;;202.43;107.93;;;;;;;-6.51;74.75;99452.09;10318093;28;20076;-56
2024/01/31 07:00:08;;;;;;;218.57;116.18;;;;;;;-5.71;75.08;99556.31;10321118;28;20064;-57
2024/01/31 07:05:08;;;;;;;204.98;102.28;;;;;;;-5.56;74.33;99546.72;10328014;28;20068;-57
2024/01/31 07:10:07;;;;;;;201.43;101.32;;;;;;;-5.48;74.18;99547.41;10329187;28;20065;-57
2024/01/31 07:15:06;;;;;;;154.90;80.10;;;;;;;-5.37;74.05;99556.00;10328639;28;20061;-56
2024/01/31 07:20:08;;;;;;;137.55;68.22;;;;;;;-5.23;73.31;99542.03;10328013;28;20069;-56
2024/01/31 07:25:10;;;;;;;135.10;71.82;;;;;;;-5.14;73.73;99550.47;10327329;28;20057;-56
2024/01/31 07:30:11;;;;;;;111.60;57.20;;;;;;;-4.97;73.47;99537.66;10328143;28;20095;-56
2024/01/31 07:35:11;;;;;;;114.80;62.00;;;;;;;-5.00;73.38;99504.47;10327698;28;20448;-56
2024/01/31 07:40:10;;;;;;;123.95;67.05;;;;;;;-5.21;73.52;99425.03;10325868;28;20057;-55
2024/01/31 07:45:09;;;;;;;141.70;77.95;;;;;;;-4.80;72.94;99468.22;10326888;28;20466;-56
2024/01/31 07:50:08;;;;;;;121.10;68.55;;;;;;;-4.82;72.46;99426.69;10327972;28;20056;-56
2024/01/31 07:55:08;;;;;;;;;;;;;;;-4.13;72.31;99530.50;10327396;28;20064;-57
2024/01/31 08:00:08;;;;;;;122.50;65.82;;;;;;;-3.98;71.39;99488.69;10326393;28;19956;-56
2024/01/31 08:05:08;;;;;;;117.95;66.93;;;;;;;-3.82;72.22;99501.88;10326665;28;20053;-56
2024/01/31 08:10:09;;;;;;;126.50;69.38;;;;;;;-3.67;71.23;99498.84;10326337;28;20067;-56
2024/01/31 08:15:08;;;;;;;120.68;70.88;;;;;;;-3.31;70.12;99507.72;10324525;28;20079;-56
2024/01/31 08:20:09;;;;;;;113.43;63.17;;;;;;;-3.44;69.78;99460.13;10326925;28;20083;-56
2024/01/31 08:25:10;;;;;;;112.05;59.00;;;;;;;-3.28;69.09;99452.09;10325376;28;20064;-56
2024/01/31 08:30:10;;;;;;;95.20;52.72;;;;;;;-2.91;68.67;99469.50;10325429;28;20093;-57
2024/01/31 08:35:10;;;;;;;105.20;55.58;;;;;;;-2.65;68.04;99482.50;10326273;28;20064;-56
2024/01/31 08:40:10;;;;;;;103.28;59.42;;;;;;;-2.39;67.17;99474.34;10324819;28;20057;-56
2024/01/31 08:45:10;;;;;;;94.03;54.83;;;;;;;-2.34;67.62;99453.59;10325428;28;20092;-56
2024/01/31 08:50:10;;;;;;;66.07;39.40;;;;;;;-3.36;67.54;99251.88;10325417;28;20475;-56
2024/01/31 08:55:09;;;;;;;68.57;39.55;;;;;;;-1.97;67.89;99436.03;10324797;28;20705;-57
2024/01/31 09:00:10;;;;;;;68.85;41.55;;;;;;;-1.84;67.10;99430.25;10324336;28;20072;-56
2024/01/31 09:05:10;;;;;;;64.65;37.00;;;;;;;-2.34;66.77;99325.59;10322184;28;20070;-56
2024/01/31 09:10:09;;;;;;;54.55;31.13;;;;;;;-1.55;65.84;99413.69;10320827;28;20467;-56
2024/01/31 09:15:09;;;;;;;52.33;31.17;;;;;;;-1.38;66.72;99403.03;10322793;28;20483;-56
2024/01/31 09:20:10;;;;;;;40.92;25.10;;;;;;;-0.96;65.71;99426.41;10322380;28;20076;-56
2024/01/31 09:25:10;;;;;;;53.63;34.15;;;;;;;-1.41;64.74;99316.25;10322208;28;20064;-57
2024/01/31 09:30:10;;;;;;;57.65;34.55;;;;;;;-2.61;63.24;99095.72;10321692;28;20783;-56
2024/01/31 09:35:09;;;;;;;52.88;34.60;;;;;;;-0.45;63.43;99384.94;10322823;28;20068;-56
2024/01/31 09:40:08;;;;;;;43.67;27.38;;;;;;;-0.72;62.66;99269.19;10323376;28;20045;-57
2024/01/31 09:45:11;;;;;;;31.35;19.90;;;;;;;0.03;60.23;99378.81;10322570;28;20057;-56
2024/01/31 09:50:11;;;;;;;22.02;15.40;;;;;;;-0.48;58.48;99257.22;10323671;28;20063;-57
2024/01/31 09:55:11;;;;;;;27.58;18.55;;;;;;;0.41;57.04;99355.81;10322378;28;20088;-57
2024/01/31 10:00:10;;;;;;;28.60;18.60;;;;;;;0.43;55.31;99328.69;10322649;28;20076;-56
2024/01/31 10:05:09;;;;;;;27.55;17.52;;;;;;;0.27;54.48;99244.25;10323193;28;20069;-58
2024/01/31 10:10:09;;;;;;;21.67;13.95;;;;;;;0.87;54.13;99325.53;10322294;28;20030;-56
2024/01/31 10:15:09;;;;;;;21.50;14.55;;;;;;;0.94;54.45;99288.41;10320745;28;20073;-57
2024/01/31 10:20:10;;;;;;;21.65;14.13;;;;;;;1.20;52.65;99291.69;10322995;28;20061;-56
2024/01/31 10:25:11;;;;;;;24.92;17.00;;;;;;;1.15;52.71;99258.16;10321747;28;20060;-56
2024/01/31 10:30:10;;;;;;;26.70;15.38;;;;;;;1.60;52.73;99277.06;10322333;28;20077;-58
2024/01/31 10:35:11;;;;;;;22.63;16.48;;;;;;;1.95;52.56;99293.59;10323076;28;20068;-55
2024/01/31 10:40:10;;;;;;;31.35;20.13;;;;;;;2.11;51.76;99257.81;10330046;28;20064;-55
2024/01/31 10:45:10;;;;;;;33.20;21.50;;;;;;;2.43;51.79;99265.53;10330164;28;20061;-55
2024/01/31 10:50:09;;;;;;;35.47;22.80;;;;;;;2.63;50.17;99246.09;10329295;28;20067;-55
2024/01/31 10:55:09;;;;;;;36.65;24.35;;;;;;;2.78;49.37;99254.66;10330058;28;20068;-56
2024/01/31 11:00:09;;;;;;;38.92;25.08;;;;;;;2.82;48.95;99210.44;10329301;28;20057;-56
2024/01/31 11:05:14;;;;;;;35.45;23.13;;;;;;;3.19;46.96;99241.47;10327950;28;20885;-57
2024/01/31 11:10:25;;;;;;;29.98;20.15;;;;;;;3.46;45.26;99215.44;10329537;28;20750;-57
2024/01/31 11:15:35;;;;;;;30.27;20.85;;;;;;;3.72;44.83;99198.75;10329021;28;20065;-57
2024/01/31 11:20:36;;;;;;;34.83;23.00;;;;;;;3.46;44.14;99101.66;10328407;28;20065;-56
2024/01/31 11:25:38;;;;;;;36.95;22.15;;;;;;;3.77;43.51;99093.72;10328835;28;20451;-56
2024/01/31 11:30:39;;;;;;;30.52;21.25;;;;;;;4.58;42.87;99182.28;10327068;28;20770;-56
2024/01/31 11:35:38;;;;;;;31.50;20.50;;;;;;;4.82;42.07;99174.78;10324538;28;20065;-56
2024/01/31 11:40:37;;;;;;;25.83;18.27;;;;;;;5.00;40.03;99164.47;10326529;28;20060;-56
2024/01/31 11:45:38;;;;;;;21.70;14.65;;;;;;;5.31;39.95;99147.78;10324614;28;20068;-56
2024/01/31 11:50:37;;;;;;;25.13;16.25;;;;;;;5.59;38.76;99151.50;10323054;28;20072;-56
2024/01/31 11:55:36;;;;;;;27.00;18.65;;;;;;;5.62;36.61;99119.00;10325219;28;20048;-55
2024/01/31 12:00:36;;;;;;;25.50;16.40;;;;;;;5.78;37.68;99102.50;10323593;28;20486;-55
2024/01/31 12:05:35;;;;;;;18.38;13.48;;;;;;;6.29;38.64;99141.41;10323402;28;20084;-56
2024/01/31 12:10:34;;;;;;;17.83;12.93;;;;;;;6.19;37.84;99119.56;10323751;28;20063;-55
2024/01/31 12:15:34;;;;;;;13.57;8.98;;;;;;;6.38;37.54;99118.56;10324479;28;20034;-54
2024/01/31 12:20:34;;;;;;;10.10;7.05;;;;;;;6.73;36.30;99118.13;10326757;28;20685;-55
2024/01/31 12:25:33;;;;;;;9.20;7.32;;;;;;;6.80;35.49;99083.97;10325779;28;20068;-55
2024/01/31 12:30:32;;;;;;;10.10;7.05;;;;;;;6.66;32.80;99049.94;10325426;28;20045;-56
2024/01/31 12:35:31;;;;;;;11.35;7.32;;;;;;;7.08;32.52;99090.06;10325906;28;20071;-55
2024/01/31 12:40:30;;;;;;;;;;;;;;;7.36;31.56;99103.09;10316381;28;20459;-55
2024/01/31 12:45:29;;;;;;;9.88;7.10;;;;;;;7.24;31.13;99054.50;10296993;28;20513;-55
2024/01/31 12:50:28;;;;;;;13.25;7.40;;;;;;;7.39;29.53;99074.78;10296519;28;20150;-55
2024/01/31 12:55:27;;;;;;;6.35;5.13;;;;;;;7.50;28.25;99070.03;10291987;28;20048;-55
2024/01/31 13:00:26;;;;;;;13.45;8.20;;;;;;;7.22;28.73;99027.75;10277178;28;20128;-56
2024/01/31 13:05:25;;;;;;;5.50;4.95;;;;;;;7.71;27.29;99097.34;10312095;28;20123;-56
2024/01/31 13:10:24;;;;;;;;;;;;;;;7.88;27.92;99098.78;10322040;28;20057;-56
2024/01/31 13:15:25;;;;;;;12.18;9.38;;;;;;;7.87;26.73;99066.88;10326334;28;19923;-56
2024/01/31 13:20:24;;;;;;;8.05;5.90;;;;;;;8.17;25.97;99096.19;10327237;28;20112;-56
2024/01/31 13:25:23;;;;;;;6.50;5.80;;;;;;;7.95;24.28;99080.03;10316647;28;20029;-56
2024/01/31 13:30:22;;;;;;;5.57;4.60;;;;;;;7.68;23.75;99024.91;10318864;28;20511;-56
2024/01/31 13:35:21;;;;;;;10.00;6.55;;;;;;;8.19;23.46;99079.03;10288765;28;20207;-56
2024/01/31 13:40:20;;;;;;;13.38;10.60;;;;;;;8.30;23.49;99073.34;10292158;28;20151;-58
2024/01/31 13:45:19;;;;;;;7.90;6.07;;;;;;;8.37;23.86;99058.88;10312183;28;20032;-56
2024/01/31 13:50:18;;;;;;;7.65;5.78;;;;;;;8.68;24.84;99083.88;10328942;28;20032;-56
2024/01/31 13:55:17;;;;;;;;;;;;;;;8.70;24.14;99078.75;10305656;28;20135;-56
2024/01/31 14:00:17;;;;;;;11.43;6.82;;;;;;;8.85;25.72;99067.94;10291330;28;19919;-56
2024/01/31 14:05:15;;;;;;;;;;;;;;;7.15;26.12;98803.81;10290084;28;20132;-56
2024/01/31 14:10:14;;;;;;;8.98;5.50;;;;;;;7.82;26.58;98871.16;10283627;28;19913;-56
2024/01/31 14:15:13;;;;;;;5.97;4.70;;;;;;;8.66;26.32;99020.00;10301854;28;20122;-55
2024/01/31 14:20:12;;;;;;;17.42;6.97;;;;;;;8.57;26.57;99006.81;10294795;28;20124;-56
2024/01/31 14:25:11;;;;;;;11.40;7.00;;;;;;;8.58;26.57;99006.84;10288421;28;20542;-56
2024/01/31 14:30:11;;;;;;;9.40;5.88;;;;;;;8.62;26.12;99025.91;10283363;28;20793;-55
2024/01/31 14:35:10;;;;;;;;;;;;;;;8.67;26.12;99043.34;10283193;28;20132;-56
2024/01/31 14:40:09;;;;;;;11.48;6.68;;;;;;;8.49;25.67;99030.75;10283957;28;19913;-55
2024/01/31 14:45:09;;;;;;;;;;;;;;;8.37;26.78;99042.47;10283363;28;20474;-55
2024/01/31 14:50:08;;;;;;;23.58;14.38;;;;;;;6.37;27.50;98749.81;10329737;28;19944;-55
2024/01/31 14:55:08;;;;;;;25.10;17.10;;;;;;;7.63;27.59;99001.53;10324191;28;20941;-55
2024/01/31 15:00:07;;;;;;;31.15;20.60;;;;;;;7.55;28.48;99040.03;10333599;28;20055;-56
2024/01/31 15:05:07;;;;;;;32.58;20.02;;;;;;;7.21;29.40;99049.22;10332042;28;20063;-56
2024/01/31 15:10:06;;;;;;;;;;;;;;;6.90;29.90;99100.66;10330948;28;20056;-56
2024/01/31 15:15:05;;;;;;;26.50;14.73;;;;;;;5.81;30.17;98966.06;10333550;28;19982;-56
2024/01/31 15:20:06;;;;;;;;;;;;;;;6.03;30.32;99059.66;10330241;28;20075;-56
2024/01/31 15:25:06;;;;;;;28.38;13.65;;;;;;;5.28;30.92;98993.22;10304038;28;20422;-56
2024/01/31 15:30:07;;;;;;;38.92;13.52;;;;;;;5.34;31.28;99068.09;10283579;28;20140;-56
2024/01/31 15:35:07;;;;;;;30.23;13.13;;;;;;;5.03;31.40;99051.41;10317051;28;20109;-56
2024/01/31 15:40:07;;;;;;;27.58;13.65;;;;;;;4.29;31.92;98965.06;10309909;28;20864;-56
2024/01/31 15:45:09;;;;;;;24.20;14.00;;;;;;;4.21;33.01;98997.28;10305690;28;20546;-56
2024/01/31 15:50:08;;;;;;;26.33;15.20;;;;;;;3.88;33.11;98981.25;10316208;28;20475;-56
2024/01/31 15:55:09;;;;;;;28.75;19.10;;;;;;;2.72;34.22;98857.94;10340807;28;20061;-56
2024/01/31 16:00:08;;;;;;;36.67;25.55;;;;;;;3.73;34.69;99056.78;10290717;28;20135;-56
2024/01/31 16:05:09;;;;;;;35.00;23.60;;;;;;;3.54;34.86;99070.44;10305534;28;20064;-56
2024/01/31 16:10:07;;;;;;;;;;;;;;;3.46;35.49;99076.00;10325182;28;20053;-56
2024/01/31 16:15:07;;;;;;;49.85;29.20;;;;;;;3.27;36.02;99085.34;10326059;28;19963;-56
2024/01/31 16:20:09;;;;;;;69.70;41.90;;;;;;;2.56;36.43;98989.56;10326991;28;20068;-56
2024/01/31 16:25:08;;;;;;;51.70;32.22;;;;;;;2.96;37.62;99098.34;10325040;28;20065;-56
2024/01/31 16:30:08;;;;;;;60.10;39.63;;;;;;;2.56;37.68;99068.97;10327205;28;20077;-57
2024/01/31 16:35:07;;;;;;;83.97;57.88;;;;;;;1.40;38.68;98901.59;10323221;28;20487;-57
2024/01/31 16:40:07;;;;;;;76.90;47.50;;;;;;;2.34;39.05;99084.91;10325511;28;20064;-56
2024/01/31 16:45:06;;;;;;;72.80;38.30;;;;;;;2.17;39.79;99089.13;10324548;28;20061;-56
2024/01/31 16:50:06;;;;;;;56.17;35.63;;;;;;;1.96;39.81;99078.63;10324662;28;20450;-55
2024/01/31 16:55:06;;;;;;;39.78;25.90;;;;;;;1.94;39.64;99097.25;10300183;28;20069;-57
2024/01/31 17:00:07;;;;;;;38.97;21.58;;;;;;;1.92;39.63;99109.97;10284577;28;20550;-57
2024/01/31 17:05:06;;;;;;;49.58;27.08;;;;;;;1.48;40.46;99071.69;10316860;28;20065;-56
2024/01/31 17:10:05;;;;;;;;;;;;;;;1.65;40.58;99109.34;10324351;28;20060;-56
2024/01/31 17:15:04;;;;;;;51.67;27.90;;;;;;;1.56;41.44;99120.72;10285710;28;19917;-56
2024/01/31 17:20:04;;;;;;;55.47;31.75;;;;;;;0.81;41.74;99015.06;10309569;28;20117;-56
2024/01/31 17:25:03;;;;;;;71.25;37.83;;;;;;;0.95;42.50;99070.41;10322247;28;20168;-56
2024/01/31 17:30:02;;;;;;;;;;;;;;;1.14;42.77;99128.59;10318764;28;20076;-56
2024/01/31 17:35:03;;;;;;;53.97;33.10;;;;;;;0.69;43.42;99069.75;10321797;28;19920;-56
2024/01/31 17:40:02;;;;;;;75.88;43.00;;;;;;;0.75;44.30;99117.78;10322985;28;20584;-56
2024/01/31 17:45:01;;;;;;;91.20;56.28;;;;;;;0.41;45.45;99107.22;10322175;28;20502;-56
2024/01/31 17:50:00;;;;;;;89.38;52.80;;;;;;;0.45;46.17;99133.03;10323279;28;20434;-55
2024/01/31 17:54:59;;;;;;;82.25;52.72;;;;;;;0.27;46.53;99129.34;10323143;28;20493;-55
2024/01/31 17:59:58;;;;;;;101.53;59.30;;;;;;;0.19;47.03;99133.09;10322202;28;20499;-55
2024/01/31 18:04:57;;;;;;;221.57;106.60;;;;;;;0.17;46.89;99132.09;10321346;28;20069;-55
2024/01/31 18:09:56;;;;;;;174.40;93.68;;;;;;;-0.05;47.05;99096.72;10322684;28;20025;-55
2024/01/31 18:14:55;;;;;;;172.30;88.82;;;;;;;-0.17;47.83;99090.06;10323282;28;20129;-55
2024/01/31 18:19:54;;;;;;;161.68;89.28;;;;;;;-0.73;48.03;98999.81;10321112;28;20187;-55
2024/01/31 18:24:53;;;;;;;150.85;79.53;;;;;;;-0.31;48.25;99087.44;10322037;28;20191;-55
2024/01/31 18:29:52;;;;;;;118.22;67.18;;;;;;;-0.33;48.92;99110.28;10321528;28;20117;-56
2024/01/31 18:34:51;;;;;;;110.57;63.50;;;;;;;-0.34;48.59;99113.66;10322327;28;20034;-56
2024/01/31 18:39:50;;;;;;;113.28;66.78;;;;;;;-0.80;48.40;99052.06;10321739;28;20061;-56
2024/01/31 18:44:49;;;;;;;157.18;83.30;;;;;;;-1.31;49.72;98974.88;10321493;28;20044;-55
2024/01/31 18:49:48;;;;;;;166.63;93.15;;;;;;;-0.78;51.10;99123.53;10321798;28;20048;-57
2024/01/31 18:54:47;;;;;;;161.82;93.30;;;;;;;-0.96;51.02;99093.50;10321968;28;20022;-55
2024/01/31 18:59:46;;;;;;;177.55;98.20;;;;;;;-0.95;52.11;99115.66;10327953;28;20479;-55
2024/01/31 19:04:45;;;;;;;151.68;88.47;;;;;;;-0.97;51.53;99118.88;10329234;28;20038;-55
2024/01/31 19:09:44;;;;;;;146.30;81.70;;;;;;;-1.22;51.11;99069.72;10329127;28;20411;-55
2024/01/31 19:14:43;;;;;;;131.57;74.55;;;;;;;-2.35;51.78;98894.22;10326999;28;20075;-55
2024/01/31 19:19:42;;;;;;;130.55;74.65;;;;;;;-1.20;52.05;99102.06;10328321;28;20022;-56
2024/01/31 19:24:41;;;;;;;126.53;75.30;;;;;;;-1.70;52.38;99012.22;10327918;28;20052;-55
2024/01/31 19:29:40;;;;;;;140.07;77.38;;;;;;;-1.32;52.26;99082.63;10327929;28;20069;-56
2024/01/31 19:34:39;;;;;;;154.38;90.47;;;;;;;-1.24;53.11;99101.84;10328349;28;20033;-56
2024/01/31 19:39:38;;;;;;;;;;;;;;;-1.24;53.45;99106.06;10328421;28;20055;-56
2024/01/31 19:44:37;;;;;;;174.05;91.50;;;;;;;-1.64;53.32;99032.97;10326816;28;19909;-56
2024/01/31 19:49:36;;;;;;;265.85;134.02;;;;;;;-2.70;53.60;98863.06;10327716;28;20503;-56
2024/01/31 19:54:39;;;;;;;208.93;110.30;;;;;;;-1.50;53.78;99081.41;10327484;28;20505;-56
2024/01/31 19:59:41;;;;;;;182.27;101.43;;;;;;;-1.94;53.86;99010.56;10326247;28;20063;-56
2024/01/31 20:04:40;;;;;;;175.68;96.32;;;;;;;-1.84;53.55;99028.22;10327538;28;20057;-56
2024/01/31 20:09:39;;;;;;;190.68;100.55;;;;;;;-1.51;53.72;99100.88;10325378;28;20064;-57
2024/01/31 20:14:38;;;;;;;203.45;106.47;;;;;;;-2.88;54.07;98860.91;10326409;28;20037;-57
2024/01/31 20:19:37;;;;;;;194.20;107.25;;;;;;;-1.75;54.48;99054.31;10326430;28;20494;-57
2024/01/31 20:24:36;;;;;;;215.38;116.13;;;;;;;-1.72;54.42;99084.16;10325067;28;20592;-57
2024/01/31 20:29:35;;;;;;;241.23;132.90;;;;;;;-2.32;55.92;98991.00;10325581;28;20053;-57
2024/01/31 20:34:34;;;;;;;234.52;127.22;;;;;;;-1.98;56.08;99059.47;10324207;28;20030;-57
2024/01/31 20:39:35;;;;;;;220.38;119.80;;;;;;;-1.87;56.42;99078.88;10324813;28;20029;-57
2024/01/31 20:44:34;;;;;;;200.32;112.07;;;;;;;-2.56;56.72;98958.03;10324860;28;20061;-56
2024/01/31 20:49:37;;;;;;;199.73;104.65;;;;;;;-1.94;56.51;99074.16;10322332;28;20036;-57
2024/01/31 20:54:39;;;;;;;167.00;90.20;;;;;;;-2.04;56.44;99046.31;10321770;28;20080;-57
2024/01/31 20:59:40;;;;;;;142.68;76.35;;;;;;;-2.27;56.50;99004.91;10324050;28;20071;-58
2024/01/31 21:04:39;;;;;;;169.77;88.63;;;;;;;-2.22;56.20;99029.00;10320833;28;20061;-56
2024/01/31 21:09:38;;;;;;;182.27;96.38;;;;;;;-2.19;56.28;99054.66;10321581;28;20040;-57
2024/01/31 21:14:37;;;;;;;247.10;123.05;;;;;;;-2.65;57.28;98987.00;10321583;28;20110;-57
2024/01/31 21:19:36;;;;;;;208.77;111.65;;;;;;;-2.68;56.75;99000.38;10321789;28;20097;-57
2024/01/31 21:24:35;;;;;;;232.05;118.88;;;;;;;-2.33;57.35;99045.19;10321664;28;20040;-56
2024/01/31 21:29:34;;;;;;;177.82;95.70;;;;;;;-2.63;58.19;99029.53;10322867;28;20053;-57
2024/01/31 21:34:35;;;;;;;186.05;94.13;;;;;;;-2.66;58.08;99031.88;10323536;28;20495;-56
2024/01/31 21:39:35;;;;;;;163.10;89.20;;;;;;;-2.49;58.38;99049.19;10320810;28;20723;-56
2024/01/31 21:44:34;;;;;;;127.95;72.05;;;;;;;-2.53;57.89;99043.78;10319160;28;20069;-57
2024/01/31 21:49:33;;;;;;;143.85;77.90;;;;;;;-2.62;58.43;99038.91;10320633;28;20318;-57
2024/01/31 21:54:31;;;;;;;154.18;77.40;;;;;;;-3.06;58.41;98950.28;10320976;28;20040;-56
2024/01/31 21:59:31;;;;;;;138.43;76.32;;;;;;;-3.82;58.58;98826.38;10320382;28;20067;-56
2024/01/31 22:04:29;;;;;;;;;;;;;;;-2.70;58.69;99027.31;10319683;28;20126;-56
2024/01/31 22:09:30;;;;;;;254.65;133.00;;;;;;;-2.81;59.98;99030.75;10320230;28;20007;-56
2024/01/31 22:14:29;;;;;;;264.10;135.50;;;;;;;-3.44;60.31;98925.53;10320974;28;20067;-57
2024/01/31 22:19:28;;;;;;;197.40;103.35;;;;;;;-3.28;60.66;98957.13;10320799;28;20061;-56
2024/01/31 22:24:27;;;;;;;192.23;100.72;;;;;;;-2.94;60.70;99022.25;10322005;28;20084;-56
2024/01/31 22:29:26;;;;;;;170.45;90.38;;;;;;;-2.97;60.63;99010.97;10321540;28;20415;-56
2024/01/31 22:34:25;;;;;;;166.20;86.65;;;;;;;-3.26;60.56;98963.19;10329383;28;20018;-56
2024/01/31 22:39:24;;;;;;;179.70;92.25;;;;;;;-3.44;60.93;98928.06;10330412;28;20024;-56
2024/01/31 22:44:23;;;;;;;191.65;95.10;;;;;;;-3.45;60.71;98931.41;10329824;28;20061;-56
2024/01/31 22:49:22;;;;;;;190.25;99.90;;;;;;;-3.67;60.67;98906.13;10329912;28;20029;-56
2024/01/31 22:54:21;;;;;;;178.70;92.72;;;;;;;-3.78;61.54;98920.56;10329581;28;20463;-56